sensor_id;sensor_type;location;lat;lon;timestamp;pressure;altitude;pressure_sealevel;temperature;humidity
7376;BME280;3728;42.266;24.944;2023-04-27T00:00:17;99037.41;;;13.01;77.80
7376;BME280;3728;42.266;24.944;2023-04-27T00:02:46;99035.78;;;12.96;77.83
7376;BME280;3728;42.266;24.944;2023-04-27T00:05:13;99040.75;;;13.34;75.74
7376;BME280;3728;42.266;24.944;2023-04-27T00:07:42;99036.06;;;13.16;76.77
7376;BME280;3728;42.266;24.944;2023-04-27T00:10:09;99042.13;;;12.95;76.78
7376;BME280;3728;42.266;24.944;2023-04-27T00:12:38;99045.63;;;12.87;77.67
7376;BME280;3728;42.266;24.944;2023-04-27T00:15:08;99044.31;;;12.93;77.19
7376;BME280;3728;42.266;24.944;2023-04-27T00:17:36;99044.50;;;12.88;76.71
7376;BME280;3728;42.266;24.944;2023-04-27T00:20:04;99048.91;;;12.96;77.52
7376;BME280;3728;42.266;24.944;2023-04-27T00:22:34;99048.16;;;12.96;77.14
7376;BME280;3728;42.266;24.944;2023-04-27T00:25:02;99050.34;;;12.94;76.57
7376;BME280;3728;42.266;24.944;2023-04-27T00:27:29;99057.81;;;13.04;75.27
7376;BME280;3728;42.266;24.944;2023-04-27T00:29:57;99061.72;;;12.98;75.26
7376;BME280;3728;42.266;24.944;2023-04-27T00:32:25;99056.59;;;13.01;74.94
7376;BME280;3728;42.266;24.944;2023-04-27T00:34:53;99059.03;;;13.07;75.55
7376;BME280;3728;42.266;24.944;2023-04-27T00:37:20;99063.81;;;12.92;75.86
7376;BME280;3728;42.266;24.944;2023-04-27T00:39:48;99074.56;;;12.99;74.53
7376;BME280;3728;42.266;24.944;2023-04-27T00:42:16;99075.94;;;13.18;73.11
7376;BME280;3728;42.266;24.944;2023-04-27T00:44:49;99082.03;;;13.10;74.28
7376;BME280;3728;42.266;24.944;2023-04-27T00:47:17;99081.78;;;13.02;73.38
7376;BME280;3728;42.266;24.944;2023-04-27T00:49:45;99088.53;;;13.24;72.28
7376;BME280;3728;42.266;24.944;2023-04-27T00:52:13;99077.47;;;13.19;71.83
7376;BME280;3728;42.266;24.944;2023-04-27T00:54:41;99087.03;;;13.02;74.17
7376;BME280;3728;42.266;24.944;2023-04-27T00:57:09;99087.53;;;13.29;74.25
7376;BME280;3728;42.266;24.944;2023-04-27T00:59:36;99093.44;;;13.14;75.30
7376;BME280;3728;42.266;24.944;2023-04-27T01:02:04;99089.75;;;12.94;76.08
7376;BME280;3728;42.266;24.944;2023-04-27T01:04:31;99096.88;;;12.93;75.62
7376;BME280;3728;42.266;24.944;2023-04-27T01:06:59;99100.47;;;12.89;75.27
7376;BME280;3728;42.266;24.944;2023-04-27T01:09:30;99110.44;;;12.95;75.59
7376;BME280;3728;42.266;24.944;2023-04-27T01:11:57;99105.91;;;13.04;75.53
7376;BME280;3728;42.266;24.944;2023-04-27T01:14:26;99108.44;;;13.13;75.88
7376;BME280;3728;42.266;24.944;2023-04-27T01:16:53;99117.31;;;13.09;76.77
7376;BME280;3728;42.266;24.944;2023-04-27T01:19:21;99122.84;;;12.95;77.42
7376;BME280;3728;42.266;24.944;2023-04-27T01:21:49;99120.72;;;12.88;79.12
7376;BME280;3728;42.266;24.944;2023-04-27T01:24:16;99121.84;;;12.87;78.63
7376;BME280;3728;42.266;24.944;2023-04-27T01:26:44;99130.19;;;13.01;76.94
7376;BME280;3728;42.266;24.944;2023-04-27T01:29:11;99128.16;;;13.19;76.30
7376;BME280;3728;42.266;24.944;2023-04-27T01:31:40;99130.19;;;13.34;74.33
7376;BME280;3728;42.266;24.944;2023-04-27T01:34:07;99136.34;;;13.50;72.69
7376;BME280;3728;42.266;24.944;2023-04-27T01:36:35;99140.16;;;13.41;73.76
7376;BME280;3728;42.266;24.944;2023-04-27T01:39:02;99138.94;;;13.38;72.74
7376;BME280;3728;42.266;24.944;2023-04-27T01:41:35;99137.44;;;13.37;72.64
7376;BME280;3728;42.266;24.944;2023-04-27T01:44:03;99149.59;;;13.42;72.76
7376;BME280;3728;42.266;24.944;2023-04-27T01:46:32;99142.53;;;13.22;73.92
7376;BME280;3728;42.266;24.944;2023-04-27T01:48:59;99138.84;;;13.02;74.79
7376;BME280;3728;42.266;24.944;2023-04-27T01:51:27;99144.09;;;13.23;73.91
7376;BME280;3728;42.266;24.944;2023-04-27T01:53:54;99143.16;;;13.07;75.37
7376;BME280;3728;42.266;24.944;2023-04-27T01:56:22;99141.44;;;13.23;74.63
7376;BME280;3728;42.266;24.944;2023-04-27T01:58:51;99142.47;;;12.97;76.30
7376;BME280;3728;42.266;24.944;2023-04-27T02:01:19;99138.25;;;12.84;75.85
7376;BME280;3728;42.266;24.944;2023-04-27T02:03:47;99137.56;;;12.75;76.99
7376;BME280;3728;42.266;24.944;2023-04-27T02:06:15;99150.59;;;12.84;76.63
7376;BME280;3728;42.266;24.944;2023-04-27T02:08:44;99150.22;;;12.94;75.63
7376;BME280;3728;42.266;24.944;2023-04-27T02:11:12;99146.91;;;12.85;75.79
7376;BME280;3728;42.266;24.944;2023-04-27T02:13:39;99153.41;;;12.67;76.77
7376;BME280;3728;42.266;24.944;2023-04-27T02:16:07;99151.22;;;12.69;77.20
7376;BME280;3728;42.266;24.944;2023-04-27T02:18:34;99159.34;;;12.76;75.28
7376;BME280;3728;42.266;24.944;2023-04-27T02:21:07;99155.97;;;12.55;77.36
7376;BME280;3728;42.266;24.944;2023-04-27T02:23:35;99148.97;;;12.59;76.23
7376;BME280;3728;42.266;24.944;2023-04-27T02:26:03;99160.75;;;12.73;74.05
7376;BME280;3728;42.266;24.944;2023-04-27T02:28:31;99160.31;;;12.71;73.60
7376;BME280;3728;42.266;24.944;2023-04-27T02:30:59;99161.38;;;12.70;72.70
7376;BME280;3728;42.266;24.944;2023-04-27T02:33:27;99163.38;;;12.73;72.80
7376;BME280;3728;42.266;24.944;2023-04-27T02:35:56;99164.97;;;12.86;71.86
7376;BME280;3728;42.266;24.944;2023-04-27T02:38:23;99168.00;;;12.76;72.25
7376;BME280;3728;42.266;24.944;2023-04-27T02:40:54;99163.53;;;12.89;72.44
7376;BME280;3728;42.266;24.944;2023-04-27T02:43:21;99174.09;;;13.01;71.91
7376;BME280;3728;42.266;24.944;2023-04-27T02:45:49;99170.97;;;13.08;72.03
7376;BME280;3728;42.266;24.944;2023-04-27T02:48:16;99177.06;;;12.99;72.22
7376;BME280;3728;42.266;24.944;2023-04-27T02:50:44;99179.78;;;13.12;73.00
7376;BME280;3728;42.266;24.944;2023-04-27T02:53:12;99181.50;;;13.08;73.11
7376;BME280;3728;42.266;24.944;2023-04-27T02:55:44;99190.06;;;13.17;73.83
7376;BME280;3728;42.266;24.944;2023-04-27T02:58:15;99186.91;;;13.02;74.36
7376;BME280;3728;42.266;24.944;2023-04-27T03:00:43;99186.81;;;12.99;74.48
7376;BME280;3728;42.266;24.944;2023-04-27T03:03:11;99192.25;;;13.15;73.36
7376;BME280;3728;42.266;24.944;2023-04-27T03:05:39;99189.88;;;13.01;73.15
7376;BME280;3728;42.266;24.944;2023-04-27T03:08:07;99182.09;;;12.72;75.18
7376;BME280;3728;42.266;24.944;2023-04-27T03:10:34;99195.22;;;12.51;76.64
7376;BME280;3728;42.266;24.944;2023-04-27T03:13:02;99189.00;;;12.35;77.86
7376;BME280;3728;42.266;24.944;2023-04-27T03:15:29;99199.13;;;12.24;77.85
7376;BME280;3728;42.266;24.944;2023-04-27T03:17:57;99192.31;;;12.23;78.39
7376;BME280;3728;42.266;24.944;2023-04-27T03:20:25;99203.78;;;12.19;78.54
7376;BME280;3728;42.266;24.944;2023-04-27T03:22:52;99198.97;;;12.21;77.98
7376;BME280;3728;42.266;24.944;2023-04-27T03:25:20;99200.69;;;12.17;78.72
7376;BME280;3728;42.266;24.944;2023-04-27T03:27:47;99206.13;;;12.12;78.56
7376;BME280;3728;42.266;24.944;2023-04-27T03:30:16;99197.66;;;12.06;78.72
7376;BME280;3728;42.266;24.944;2023-04-27T03:32:44;99202.72;;;12.11;78.94
7376;BME280;3728;42.266;24.944;2023-04-27T03:35:13;99212.72;;;12.18;79.17
7376;BME280;3728;42.266;24.944;2023-04-27T03:37:41;99212.88;;;12.21;80.32
7376;BME280;3728;42.266;24.944;2023-04-27T03:40:12;99218.91;;;12.22;81.86
7376;BME280;3728;42.266;24.944;2023-04-27T03:42:40;99217.44;;;12.33;83.41
7376;BME280;3728;42.266;24.944;2023-04-27T03:45:08;99219.25;;;12.41;80.43
7376;BME280;3728;42.266;24.944;2023-04-27T03:47:37;99219.19;;;12.20;81.47
7376;BME280;3728;42.266;24.944;2023-04-27T03:50:05;99222.72;;;12.54;80.26
7376;BME280;3728;42.266;24.944;2023-04-27T03:52:33;99234.59;;;12.80;77.96
7376;BME280;3728;42.266;24.944;2023-04-27T03:55:02;99230.91;;;12.93;76.11
7376;BME280;3728;42.266;24.944;2023-04-27T03:57:31;99234.31;;;12.94;74.33
7376;BME280;3728;42.266;24.944;2023-04-27T03:59:59;99249.75;;;12.75;75.30
7376;BME280;3728;42.266;24.944;2023-04-27T04:02:26;99243.63;;;12.71;75.29
7376;BME280;3728;42.266;24.944;2023-04-27T04:04:56;99247.06;;;12.63;75.59
7376;BME280;3728;42.266;24.944;2023-04-27T04:07:23;99249.88;;;12.58;74.52
7376;BME280;3728;42.266;24.944;2023-04-27T04:09:51;99250.84;;;12.24;76.81
7376;BME280;3728;42.266;24.944;2023-04-27T04:12:18;99242.38;;;12.18;76.50
7376;BME280;3728;42.266;24.944;2023-04-27T04:14:46;99248.41;;;12.19;77.04
7376;BME280;3728;42.266;24.944;2023-04-27T04:17:14;99252.31;;;12.13;77.46
7376;BME280;3728;42.266;24.944;2023-04-27T04:19:42;99259.00;;;12.31;77.70
7376;BME280;3728;42.266;24.944;2023-04-27T04:22:10;99254.44;;;12.11;76.50
7376;BME280;3728;42.266;24.944;2023-04-27T04:24:38;99257.81;;;12.20;76.75
7376;BME280;3728;42.266;24.944;2023-04-27T04:27:06;99262.97;;;12.08;76.62
7376;BME280;3728;42.266;24.944;2023-04-27T04:29:38;99268.22;;;12.08;76.53
7376;BME280;3728;42.266;24.944;2023-04-27T04:32:06;99267.56;;;12.19;77.53
7376;BME280;3728;42.266;24.944;2023-04-27T04:34:35;99268.34;;;12.20;76.89
7376;BME280;3728;42.266;24.944;2023-04-27T04:37:03;99278.06;;;12.11;77.48
7376;BME280;3728;42.266;24.944;2023-04-27T04:39:31;99274.50;;;12.15;75.93
7376;BME280;3728;42.266;24.944;2023-04-27T04:42:00;99284.44;;;12.10;76.32
7376;BME280;3728;42.266;24.944;2023-04-27T04:44:30;99277.28;;;12.19;76.89
7376;BME280;3728;42.266;24.944;2023-04-27T04:46:58;99283.31;;;12.19;77.08
7376;BME280;3728;42.266;24.944;2023-04-27T04:49:26;99284.13;;;12.41;78.35
7376;BME280;3728;42.266;24.944;2023-04-27T04:51:54;99284.41;;;12.48;77.48
7376;BME280;3728;42.266;24.944;2023-04-27T04:54:21;99295.19;;;12.55;75.59
7376;BME280;3728;42.266;24.944;2023-04-27T04:56:49;99294.22;;;12.59;75.67
7376;BME280;3728;42.266;24.944;2023-04-27T04:59:17;99301.69;;;12.78;76.86
7376;BME280;3728;42.266;24.944;2023-04-27T05:01:44;99303.44;;;12.65;74.50
7376;BME280;3728;42.266;24.944;2023-04-27T05:04:12;99296.88;;;12.80;73.86
7376;BME280;3728;42.266;24.944;2023-04-27T05:06:39;99309.69;;;12.81;73.60
7376;BME280;3728;42.266;24.944;2023-04-27T05:09:08;99311.06;;;12.87;72.85
7376;BME280;3728;42.266;24.944;2023-04-27T05:11:36;99308.72;;;12.86;71.98
7376;BME280;3728;42.266;24.944;2023-04-27T05:14:03;99309.41;;;13.03;71.55
7376;BME280;3728;42.266;24.944;2023-04-27T05:16:31;99316.75;;;13.19;70.35
7376;BME280;3728;42.266;24.944;2023-04-27T05:18:59;99320.38;;;13.26;68.52
7376;BME280;3728;42.266;24.944;2023-04-27T05:21:26;99321.53;;;13.37;68.39
7376;BME280;3728;42.266;24.944;2023-04-27T05:23:54;99320.97;;;13.32;69.24
7376;BME280;3728;42.266;24.944;2023-04-27T05:26:22;99323.16;;;13.30;69.17
7376;BME280;3728;42.266;24.944;2023-04-27T05:28:49;99323.97;;;13.42;67.17
7376;BME280;3728;42.266;24.944;2023-04-27T05:31:17;99330.13;;;13.46;68.14
7376;BME280;3728;42.266;24.944;2023-04-27T05:33:45;99325.16;;;13.45;72.80
7376;BME280;3728;42.266;24.944;2023-04-27T05:36:13;99329.13;;;13.71;68.03
7376;BME280;3728;42.266;24.944;2023-04-27T05:38:41;99325.44;;;13.85;66.00
7376;BME280;3728;42.266;24.944;2023-04-27T05:41:09;99327.75;;;13.86;66.51
7376;BME280;3728;42.266;24.944;2023-04-27T05:43:39;99320.16;;;14.42;63.27
7376;BME280;3728;42.266;24.944;2023-04-27T05:46:07;99338.16;;;14.52;61.95
7376;BME280;3728;42.266;24.944;2023-04-27T05:48:35;99333.53;;;14.49;66.09
7376;BME280;3728;42.266;24.944;2023-04-27T05:51:05;99338.16;;;14.64;60.80
7376;BME280;3728;42.266;24.944;2023-04-27T05:53:33;99340.16;;;14.55;59.05
7376;BME280;3728;42.266;24.944;2023-04-27T05:56:01;99337.59;;;14.70;60.16
7376;BME280;3728;42.266;24.944;2023-04-27T05:58:32;99336.50;;;14.83;61.26
7376;BME280;3728;42.266;24.944;2023-04-27T06:01:00;99347.13;;;15.11;59.35
7376;BME280;3728;42.266;24.944;2023-04-27T06:03:32;99350.81;;;15.22;59.87
7376;BME280;3728;42.266;24.944;2023-04-27T06:06:03;99342.81;;;15.19;58.99
7376;BME280;3728;42.266;24.944;2023-04-27T06:08:34;99349.78;;;15.51;59.09
7376;BME280;3728;42.266;24.944;2023-04-27T06:11:03;99359.69;;;15.69;56.09
7376;BME280;3728;42.266;24.944;2023-04-27T06:13:36;99353.69;;;15.57;57.26
7376;BME280;3728;42.266;24.944;2023-04-27T06:16:10;99347.00;;;16.03;53.55
7376;BME280;3728;42.266;24.944;2023-04-27T06:18:37;99352.22;;;15.71;57.17
7376;BME280;3728;42.266;24.944;2023-04-27T06:21:07;99345.97;;;15.92;54.90
7376;BME280;3728;42.266;24.944;2023-04-27T06:23:35;99347.09;;;15.79;55.83
7376;BME280;3728;42.266;24.944;2023-04-27T06:26:03;99350.13;;;15.49;55.61
7376;BME280;3728;42.266;24.944;2023-04-27T06:28:31;99352.66;;;15.34;59.23
7376;BME280;3728;42.266;24.944;2023-04-27T06:30:59;99351.25;;;15.64;57.33
7376;BME280;3728;42.266;24.944;2023-04-27T06:33:27;99353.81;;;15.60;58.14
7376;BME280;3728;42.266;24.944;2023-04-27T06:35:55;99361.38;;;15.62;57.97
7376;BME280;3728;42.266;24.944;2023-04-27T06:38:22;99357.16;;;15.45;57.78
7376;BME280;3728;42.266;24.944;2023-04-27T06:40:51;99364.31;;;15.33;58.83
7376;BME280;3728;42.266;24.944;2023-04-27T06:43:18;99356.06;;;15.34;57.54
7376;BME280;3728;42.266;24.944;2023-04-27T06:45:49;99354.28;;;14.98;58.10
7376;BME280;3728;42.266;24.944;2023-04-27T06:48:20;99348.47;;;14.81;57.04
7376;BME280;3728;42.266;24.944;2023-04-27T06:50:48;99356.81;;;15.07;55.04
7376;BME280;3728;42.266;24.944;2023-04-27T06:53:16;99361.09;;;14.87;56.20
7376;BME280;3728;42.266;24.944;2023-04-27T06:55:45;99369.00;;;14.63;58.60
7376;BME280;3728;42.266;24.944;2023-04-27T06:58:14;99363.19;;;14.70;56.65
7376;BME280;3728;42.266;24.944;2023-04-27T07:00:41;99361.00;;;14.60;58.17
7376;BME280;3728;42.266;24.944;2023-04-27T07:03:09;99363.06;;;14.42;57.55
7376;BME280;3728;42.266;24.944;2023-04-27T07:05:37;99374.97;;;14.48;60.17
7376;BME280;3728;42.266;24.944;2023-04-27T07:08:07;99371.84;;;14.46;58.22
7376;BME280;3728;42.266;24.944;2023-04-27T07:10:35;99372.34;;;14.27;60.77
7376;BME280;3728;42.266;24.944;2023-04-27T07:13:03;99380.25;;;14.27;59.24
7376;BME280;3728;42.266;24.944;2023-04-27T07:15:35;99380.59;;;14.26;60.98
7376;BME280;3728;42.266;24.944;2023-04-27T07:18:03;99377.59;;;14.48;56.64
7376;BME280;3728;42.266;24.944;2023-04-27T07:20:31;99378.50;;;14.19;59.63
7376;BME280;3728;42.266;24.944;2023-04-27T07:23:01;99369.66;;;13.91;61.33
7376;BME280;3728;42.266;24.944;2023-04-27T07:25:33;99376.44;;;13.92;64.43
7376;BME280;3728;42.266;24.944;2023-04-27T07:28:01;99377.78;;;13.98;60.66
7376;BME280;3728;42.266;24.944;2023-04-27T07:30:29;99378.47;;;13.75;60.46
7376;BME280;3728;42.266;24.944;2023-04-27T07:33:00;99372.97;;;14.00;62.73
7376;BME280;3728;42.266;24.944;2023-04-27T07:35:29;99379.78;;;14.01;65.04
7376;BME280;3728;42.266;24.944;2023-04-27T07:37:59;99373.22;;;14.19;60.19
7376;BME280;3728;42.266;24.944;2023-04-27T07:40:30;99377.78;;;13.98;61.29
7376;BME280;3728;42.266;24.944;2023-04-27T07:42:58;99373.25;;;13.87;62.06
7376;BME280;3728;42.266;24.944;2023-04-27T07:45:26;99378.22;;;14.00;61.70
7376;BME280;3728;42.266;24.944;2023-04-27T07:47:59;99378.03;;;14.05;61.63
7376;BME280;3728;42.266;24.944;2023-04-27T07:50:31;99374.59;;;14.37;58.98
7376;BME280;3728;42.266;24.944;2023-04-27T07:53:02;99382.91;;;14.15;61.58
7376;BME280;3728;42.266;24.944;2023-04-27T07:55:36;99379.31;;;14.32;62.31
7376;BME280;3728;42.266;24.944;2023-04-27T07:58:07;99381.75;;;14.73;61.02
7376;BME280;3728;42.266;24.944;2023-04-27T08:00:45;99384.94;;;14.91;63.52
7376;BME280;3728;42.266;24.944;2023-04-27T08:03:13;99386.69;;;15.11;59.74
7376;BME280;3728;42.266;24.944;2023-04-27T08:05:53;99385.34;;;15.05;62.05
7376;BME280;3728;42.266;24.944;2023-04-27T08:08:36;99400.41;;;15.17;58.54
7376;BME280;3728;42.266;24.944;2023-04-27T08:12:12;99396.63;;;15.54;56.53
7376;BME280;3728;42.266;24.944;2023-04-27T08:14:45;99400.78;;;15.43;58.44
7376;BME280;3728;42.266;24.944;2023-04-27T08:17:18;99396.03;;;15.88;55.58
7376;BME280;3728;42.266;24.944;2023-04-27T08:19:49;99391.75;;;15.56;57.33
7376;BME280;3728;42.266;24.944;2023-04-27T08:22:27;99386.81;;;15.82;55.42
7376;BME280;3728;42.266;24.944;2023-04-27T08:24:59;99386.34;;;15.64;54.93
7376;BME280;3728;42.266;24.944;2023-04-27T08:27:26;99387.59;;;15.83;53.61
7376;BME280;3728;42.266;24.944;2023-04-27T08:29:54;99395.31;;;16.19;52.72
7376;BME280;3728;42.266;24.944;2023-04-27T08:32:22;99389.16;;;15.99;53.18
7376;BME280;3728;42.266;24.944;2023-04-27T08:34:49;99395.19;;;16.43;53.34
7376;BME280;3728;42.266;24.944;2023-04-27T08:37:17;99392.31;;;16.64;51.89
7376;BME280;3728;42.266;24.944;2023-04-27T08:39:46;99380.72;;;16.53;54.40
7376;BME280;3728;42.266;24.944;2023-04-27T08:42:14;99381.38;;;16.81;51.88
7376;BME280;3728;42.266;24.944;2023-04-27T08:44:45;99379.31;;;16.90;52.35
7376;BME280;3728;42.266;24.944;2023-04-27T08:47:13;99381.41;;;17.00;50.42
7376;BME280;3728;42.266;24.944;2023-04-27T08:49:41;99386.94;;;17.10;54.52
7376;BME280;3728;42.266;24.944;2023-04-27T08:52:11;99377.16;;;16.95;51.52
7376;BME280;3728;42.266;24.944;2023-04-27T08:54:39;99375.00;;;17.36;52.50
7376;BME280;3728;42.266;24.944;2023-04-27T08:59:41;99376.25;;;17.42;50.56
7376;BME280;3728;42.266;24.944;2023-04-27T09:02:21;99370.44;;;17.52;50.66
7376;BME280;3728;42.266;24.944;2023-04-27T09:04:49;99367.69;;;17.67;50.03
7376;BME280;3728;42.266;24.944;2023-04-27T09:07:17;99367.13;;;17.77;48.57
7376;BME280;3728;42.266;24.944;2023-04-27T09:09:44;99371.34;;;18.01;50.07
7376;BME280;3728;42.266;24.944;2023-04-27T09:14:59;99368.31;;;17.80;49.23
7376;BME280;3728;42.266;24.944;2023-04-27T09:17:31;99367.06;;;18.16;48.33
7376;BME280;3728;42.266;24.944;2023-04-27T09:20:06;99366.06;;;18.01;45.59
7376;BME280;3728;42.266;24.944;2023-04-27T09:22:45;99367.47;;;17.76;46.17
7376;BME280;3728;42.266;24.944;2023-04-27T09:25:26;99365.47;;;17.69;48.64
7376;BME280;3728;42.266;24.944;2023-04-27T09:27:57;99367.19;;;17.81;48.48
7376;BME280;3728;42.266;24.944;2023-04-27T09:30:27;99368.81;;;18.08;46.51
7376;BME280;3728;42.266;24.944;2023-04-27T09:32:58;99364.47;;;17.97;46.20
7376;BME280;3728;42.266;24.944;2023-04-27T09:35:29;99365.81;;;18.10;45.76
7376;BME280;3728;42.266;24.944;2023-04-27T09:37:58;99363.69;;;17.96;48.01
7376;BME280;3728;42.266;24.944;2023-04-27T09:40:28;99361.38;;;17.95;47.24
7376;BME280;3728;42.266;24.944;2023-04-27T09:42:59;99351.97;;;18.20;46.59
7376;BME280;3728;42.266;24.944;2023-04-27T09:45:29;99351.03;;;18.31;48.13
7376;BME280;3728;42.266;24.944;2023-04-27T09:48:00;99352.25;;;18.37;46.51
7376;BME280;3728;42.266;24.944;2023-04-27T09:50:29;99350.25;;;18.80;43.04
7376;BME280;3728;42.266;24.944;2023-04-27T09:53:08;99352.97;;;18.34;44.39
7376;BME280;3728;42.266;24.944;2023-04-27T09:55:56;99351.09;;;18.58;44.96
7376;BME280;3728;42.266;24.944;2023-04-27T09:59:07;99344.22;;;19.09;43.54
7376;BME280;3728;42.266;24.944;2023-04-27T10:01:51;99349.75;;;18.71;43.96
7376;BME280;3728;42.266;24.944;2023-04-27T10:07:04;99338.66;;;18.39;43.17
7376;BME280;3728;42.266;24.944;2023-04-27T10:09:36;99345.38;;;18.56;42.60
7376;BME280;3728;42.266;24.944;2023-04-27T10:12:16;99342.16;;;18.69;42.47
7376;BME280;3728;42.266;24.944;2023-04-27T10:15:10;99342.97;;;18.73;42.72
7376;BME280;3728;42.266;24.944;2023-04-27T10:17:47;99341.09;;;18.48;44.59
7376;BME280;3728;42.266;24.944;2023-04-27T10:20:15;99337.72;;;18.77;42.36
7376;BME280;3728;42.266;24.944;2023-04-27T10:25:16;99330.22;;;18.33;42.93
7376;BME280;3728;42.266;24.944;2023-04-27T10:27:57;99331.59;;;18.47;44.38
7376;BME280;3728;42.266;24.944;2023-04-27T10:30:35;99341.19;;;18.55;43.40
7376;BME280;3728;42.266;24.944;2023-04-27T10:33:06;99335.63;;;18.40;42.52
7376;BME280;3728;42.266;24.944;2023-04-27T10:35:39;99341.56;;;18.53;43.85
7376;BME280;3728;42.266;24.944;2023-04-27T10:38:19;99336.69;;;18.85;44.82
7376;BME280;3728;42.266;24.944;2023-04-27T10:41:02;99340.72;;;19.31;41.85
7376;BME280;3728;42.266;24.944;2023-04-27T10:43:34;99337.75;;;19.36;43.41
7376;BME280;3728;42.266;24.944;2023-04-27T10:46:14;99338.81;;;19.61;43.51
7376;BME280;3728;42.266;24.944;2023-04-27T10:48:43;99333.84;;;19.97;40.55
7376;BME280;3728;42.266;24.944;2023-04-27T10:51:15;99334.25;;;19.99;40.63
7376;BME280;3728;42.266;24.944;2023-04-27T10:53:44;99335.88;;;20.14;39.75
7376;BME280;3728;42.266;24.944;2023-04-27T10:56:17;99340.94;;;20.26;39.22
7376;BME280;3728;42.266;24.944;2023-04-27T10:58:45;99346.56;;;20.17;38.30
7376;BME280;3728;42.266;24.944;2023-04-27T11:01:26;99335.28;;;19.91;39.37
7376;BME280;3728;42.266;24.944;2023-04-27T11:03:56;99335.41;;;20.05;38.86
7376;BME280;3728;42.266;24.944;2023-04-27T11:06:24;99330.50;;;19.66;40.05
7376;BME280;3728;42.266;24.944;2023-04-27T11:08:57;99336.63;;;19.37;41.17
7376;BME280;3728;42.266;24.944;2023-04-27T11:11:24;99332.78;;;19.68;39.96
7376;BME280;3728;42.266;24.944;2023-04-27T11:13:53;99338.72;;;19.54;43.26
7376;BME280;3728;42.266;24.944;2023-04-27T11:16:23;99332.50;;;19.76;41.25
7376;BME280;3728;42.266;24.944;2023-04-27T11:18:52;99335.06;;;19.66;41.58
7376;BME280;3728;42.266;24.944;2023-04-27T11:21:21;99332.50;;;19.43;40.37
7376;BME280;3728;42.266;24.944;2023-04-27T11:23:49;99336.81;;;19.22;41.52
7376;BME280;3728;42.266;24.944;2023-04-27T11:26:19;99332.75;;;19.01;41.36
7376;BME280;3728;42.266;24.944;2023-04-27T11:28:58;99331.25;;;18.74;41.49
7376;BME280;3728;42.266;24.944;2023-04-27T11:31:42;99336.41;;;18.64;42.08
7376;BME280;3728;42.266;24.944;2023-04-27T11:37:04;99341.66;;;17.92;43.45
7376;BME280;3728;42.266;24.944;2023-04-27T11:39:52;99346.84;;;18.08;42.47
7376;BME280;3728;42.266;24.944;2023-04-27T11:42:22;99345.09;;;18.15;42.30
7376;BME280;3728;42.266;24.944;2023-04-27T11:44:53;99343.81;;;17.64;43.96
7376;BME280;3728;42.266;24.944;2023-04-27T11:47:23;99347.63;;;17.28;44.54
7376;BME280;3728;42.266;24.944;2023-04-27T11:49:54;99348.56;;;17.20;45.59
7376;BME280;3728;42.266;24.944;2023-04-27T11:52:31;99359.47;;;16.99;46.44
7376;BME280;3728;42.266;24.944;2023-04-27T11:55:03;99356.53;;;16.85;47.99
7376;BME280;3728;42.266;24.944;2023-04-27T11:57:32;99362.25;;;16.87;47.89
7376;BME280;3728;42.266;24.944;2023-04-27T12:00:04;99359.03;;;17.32;47.12
7376;BME280;3728;42.266;24.944;2023-04-27T12:02:41;99358.94;;;17.48;51.61
7376;BME280;3728;42.266;24.944;2023-04-27T12:05:10;99360.56;;;17.71;53.64
7376;BME280;3728;42.266;24.944;2023-04-27T12:07:40;99363.84;;;17.65;54.38
7376;BME280;3728;42.266;24.944;2023-04-27T12:10:11;99360.16;;;17.69;53.98
7376;BME280;3728;42.266;24.944;2023-04-27T12:12:39;99356.47;;;17.74;54.17
7376;BME280;3728;42.266;24.944;2023-04-27T12:15:07;99365.44;;;17.89;54.01
7376;BME280;3728;42.266;24.944;2023-04-27T12:17:35;99359.31;;;18.07;53.72
7376;BME280;3728;42.266;24.944;2023-04-27T12:20:04;99365.13;;;18.13;55.09
7376;BME280;3728;42.266;24.944;2023-04-27T12:22:32;99358.16;;;18.27;54.82
7376;BME280;3728;42.266;24.944;2023-04-27T12:25:00;99361.94;;;18.26;53.52
7376;BME280;3728;42.266;24.944;2023-04-27T12:27:27;99362.38;;;18.51;52.63
7376;BME280;3728;42.266;24.944;2023-04-27T12:29:55;99362.41;;;18.81;52.98
7376;BME280;3728;42.266;24.944;2023-04-27T12:32:25;99358.88;;;18.99;49.64
7376;BME280;3728;42.266;24.944;2023-04-27T12:34:53;99368.03;;;19.02;52.09
7376;BME280;3728;42.266;24.944;2023-04-27T12:37:21;99362.97;;;19.49;52.32
7376;BME280;3728;42.266;24.944;2023-04-27T12:39:52;99365.53;;;19.75;53.60
7376;BME280;3728;42.266;24.944;2023-04-27T12:42:20;99362.00;;;20.05;51.11
7376;BME280;3728;42.266;24.944;2023-04-27T12:44:50;99360.06;;;19.98;49.61
7376;BME280;3728;42.266;24.944;2023-04-27T12:47:21;99358.03;;;19.85;50.20
7376;BME280;3728;42.266;24.944;2023-04-27T12:49:52;99361.56;;;19.59;48.31
7376;BME280;3728;42.266;24.944;2023-04-27T12:52:19;99364.84;;;19.49;49.96
7376;BME280;3728;42.266;24.944;2023-04-27T12:54:47;99367.78;;;19.40;50.78
7376;BME280;3728;42.266;24.944;2023-04-27T12:57:14;99370.97;;;19.23;49.74
7376;BME280;3728;42.266;24.944;2023-04-27T12:59:42;99366.66;;;19.15;51.59
7376;BME280;3728;42.266;24.944;2023-04-27T13:02:10;99372.47;;;18.94;51.96
7376;BME280;3728;42.266;24.944;2023-04-27T13:04:38;99364.31;;;18.80;51.95
7376;BME280;3728;42.266;24.944;2023-04-27T13:07:06;99374.34;;;18.94;54.27
7376;BME280;3728;42.266;24.944;2023-04-27T13:09:34;99374.00;;;18.69;56.35
7376;BME280;3728;42.266;24.944;2023-04-27T13:12:02;99371.06;;;18.74;55.67
7376;BME280;3728;42.266;24.944;2023-04-27T13:14:29;99371.59;;;18.61;56.27
7376;BME280;3728;42.266;24.944;2023-04-27T13:16:58;99382.22;;;18.87;55.05
7376;BME280;3728;42.266;24.944;2023-04-27T13:19:27;99378.34;;;19.07;54.71
7376;BME280;3728;42.266;24.944;2023-04-27T13:21:55;99384.34;;;19.04;55.24
7376;BME280;3728;42.266;24.944;2023-04-27T13:24:22;99376.03;;;19.05;55.69
7376;BME280;3728;42.266;24.944;2023-04-27T13:26:50;99377.38;;;19.22;55.00
7376;BME280;3728;42.266;24.944;2023-04-27T13:29:18;99371.66;;;19.20;55.41
7376;BME280;3728;42.266;24.944;2023-04-27T13:31:45;99381.56;;;19.53;53.68
7376;BME280;3728;42.266;24.944;2023-04-27T13:34:13;99375.44;;;19.45;51.90
7376;BME280;3728;42.266;24.944;2023-04-27T13:36:41;99374.28;;;19.46;51.83